Terminal Aerodrome Forecast
Issued by NWS Charleston, WV

Current Version | Previous Version | Graphics & Text | Print | Product List | Glossary On
Versions: 1 2 3 4 5 6 7 8 9 10 11 12 13 14 15 16 17 18 19 20 21 22 23 24 25 26
000
FTUS41 KRLX 281047 AAB
TAFCRW
TAF AMD
KCRW 281047Z 2811/2906 00000KT 5SM BR SCT001
     FM281300 VRB04KT P6SM SKC
     FM281500 19006KT P6SM FEW250
     FM282300 VRB03KT P6SM BKN090=

USA.gov is the U.S. government's official web portal to all federal, state and local government web resources and services.